createdAt,value
2019-04-11T00:00:40.181Z,1004.54
2019-04-11T00:01:45.207Z,1004.55
2019-04-11T00:02:41.139Z,1004.56
2019-04-11T00:03:40.126Z,1004.56
2019-04-11T00:04:40.181Z,1004.54
2019-04-11T00:05:41.257Z,1004.55
2019-04-11T00:06:40.097Z,1004.58
2019-04-11T00:07:40.546Z,1004.56
2019-04-11T00:08:45.966Z,1004.51
2019-04-11T00:09:40.854Z,1004.53
2019-04-11T00:10:40.076Z,1004.55
2019-04-11T00:11:40.038Z,1004.53
2019-04-11T00:12:40.950Z,1004.62
2019-04-11T00:13:41.045Z,1004.57
2019-04-11T00:14:40.137Z,1004.55
2019-04-11T00:15:40.465Z,1004.53
2019-04-11T00:16:39.987Z,1004.56
2019-04-11T00:17:39.975Z,1004.59
2019-04-11T00:18:41.009Z,1004.52
2019-04-11T00:19:45.383Z,1004.59
2019-04-11T00:20:40.286Z,1004.57
2019-04-11T00:21:39.937Z,1004.53
2019-04-11T00:22:39.918Z,1004.58
2019-04-11T00:23:40.547Z,1004.51
2019-04-11T00:24:39.897Z,1004.58
2019-04-11T00:25:39.982Z,1004.58
2019-04-11T00:26:40.287Z,1004.59
2019-04-11T00:27:39.859Z,1004.62
2019-04-11T00:28:39.848Z,1004.62
2019-04-11T00:29:40.716Z,1004.64
2019-04-11T00:30:44.857Z,1004.64
2019-04-11T00:31:41.025Z,1004.66
2019-04-11T00:32:39.806Z,1004.69
2019-04-11T00:33:40.421Z,1004.71
2019-04-11T00:34:39.786Z,1004.70
2019-04-11T00:35:39.942Z,1004.68
2019-04-11T00:36:40.788Z,1004.72
2019-04-11T00:37:39.745Z,1004.75
2019-04-11T00:38:40.288Z,1004.74
2019-04-11T00:39:39.749Z,1004.74
2019-04-11T00:40:39.723Z,1004.72
2019-04-11T00:41:44.743Z,1004.81
2019-04-11T00:42:40.848Z,1004.73
2019-04-11T00:43:42.148Z,1004.78
2019-04-11T00:44:39.679Z,1004.76
2019-04-11T00:45:40.085Z,1004.74
2019-04-11T00:46:40.493Z,1004.68
2019-04-11T00:47:39.793Z,1004.72
2019-04-11T00:48:39.714Z,1004.69
2019-04-11T00:49:40.759Z,1004.76
2019-04-11T00:50:39.602Z,1004.67
2019-04-11T00:51:40.191Z,1004.74
2019-04-11T00:52:45.476Z,1004.73
2019-04-11T00:53:40.365Z,1004.75
2019-04-11T00:54:40.614Z,1004.76
2019-04-11T00:55:39.834Z,1004.69
2019-04-11T00:56:40.072Z,1004.72
2019-04-11T00:57:39.531Z,1004.65
2019-04-11T00:58:39.525Z,1004.66
2019-04-11T00:59:40.624Z,1004.73
2019-04-11T01:00:39.737Z,1004.72
2019-04-11T01:01:39.499Z,1004.70
2019-04-11T01:02:41.492Z,1004.69
2019-04-11T01:03:45.422Z,1004.65
2019-04-11T01:04:39.449Z,1004.73
2019-04-11T01:05:39.522Z,1004.64
2019-04-11T01:06:40.459Z,1004.65
2019-04-11T01:07:39.424Z,1004.62
2019-04-11T01:08:39.920Z,1004.65
2019-04-11T01:09:40.217Z,1004.70
2019-04-11T01:10:39.443Z,1004.65
2019-04-11T01:11:40.391Z,1004.62
2019-04-11T01:12:39.381Z,1004.65
2019-04-11T01:13:47.241Z,1004.67
2019-04-11T01:14:45.357Z,1004.68
2019-04-11T01:15:39.324Z,1004.69
2019-04-11T01:16:39.318Z,1004.70
2019-04-11T01:17:39.323Z,1004.69
2019-04-11T01:18:40.328Z,1004.75
2019-04-11T01:19:39.280Z,1004.74
2019-04-11T01:20:39.763Z,1004.77
2019-04-11T01:21:40.320Z,1004.75
2019-04-11T01:22:40.481Z,1004.74
2019-04-11T01:23:39.484Z,1004.73
2019-04-11T01:24:39.884Z,1004.68
2019-04-11T01:25:44.402Z,1004.76
2019-04-11T01:26:39.205Z,1004.77
2019-04-11T01:27:39.989Z,1004.70
2019-04-11T01:28:39.183Z,1004.79
2019-04-11T01:29:39.815Z,1004.80
2019-04-11T01:30:39.158Z,1004.79
2019-04-11T01:31:39.903Z,1004.85
2019-04-11T01:32:40.225Z,1004.87
2019-04-11T01:33:40.089Z,1004.84
2019-04-11T01:34:40.368Z,1004.87
2019-04-11T01:35:39.508Z,1004.90
2019-04-11T01:36:45.081Z,1004.88
2019-04-11T01:37:39.835Z,1004.92
2019-04-11T01:38:39.071Z,1004.86
2019-04-11T01:39:39.132Z,1004.88
2019-04-11T01:40:39.945Z,1004.92
2019-04-11T01:41:39.037Z,1004.83
2019-04-11T01:42:39.696Z,1004.86
2019-04-11T01:43:43.508Z,1004.95
2019-04-11T01:44:41.005Z,1004.96
2019-04-11T01:45:38.996Z,1004.91
2019-04-11T01:46:38.986Z,1004.84
2019-04-11T01:47:44.776Z,1004.93
2019-04-11T01:48:39.637Z,1004.87
2019-04-11T01:49:38.953Z,1004.92
2019-04-11T01:50:39.011Z,1004.85
2019-04-11T01:51:40.030Z,1004.88
2019-04-11T01:52:38.937Z,1004.85
2019-04-11T01:53:40.546Z,1004.92
2019-04-11T01:54:39.593Z,1004.88
2019-04-11T01:55:38.903Z,1004.94
2019-04-11T01:56:39.197Z,1004.86
2019-04-11T01:57:38.866Z,1004.83
2019-04-11T01:58:43.893Z,1004.86
2019-04-11T01:59:39.611Z,1004.87
2019-04-11T02:00:39.842Z,1004.91
2019-04-11T02:01:39.078Z,1004.94
2019-04-11T02:02:38.953Z,1004.98
2019-04-11T02:03:39.344Z,1004.95
2019-04-11T02:04:38.798Z,1004.99
2019-04-11T02:05:38.784Z,1004.95
2019-04-11T02:06:38.763Z,1004.97
2019-04-11T02:07:38.769Z,1004.94
2019-04-11T02:08:39.655Z,1004.88
2019-04-11T02:09:44.222Z,1005.04
2019-04-11T02:10:39.130Z,1005.01
2019-04-11T02:11:39.470Z,1004.98
2019-04-11T02:12:39.392Z,1004.94
2019-04-11T02:13:39.683Z,1004.94
2019-04-11T02:14:39.590Z,1005.01
2019-04-11T02:15:38.783Z,1004.97
2019-04-11T02:16:38.656Z,1004.92
2019-04-11T02:17:39.096Z,1004.90
2019-04-11T02:18:39.382Z,1004.93
2019-04-11T02:19:38.623Z,1005.02
2019-04-11T02:20:43.632Z,1005.04
2019-04-11T02:21:38.605Z,1005.01
2019-04-11T02:22:38.596Z,1005.00
2019-04-11T02:23:39.356Z,1005.01
2019-04-11T02:24:39.619Z,1005.07
2019-04-11T02:25:38.772Z,1005.05
2019-04-11T02:26:38.549Z,1005.05
2019-04-11T02:27:38.555Z,1005.06
2019-04-11T02:28:39.043Z,1005.10
2019-04-11T02:29:38.512Z,1005.14
2019-04-11T02:30:39.369Z,1005.11
2019-04-11T02:31:44.546Z,1005.15
2019-04-11T02:32:40.228Z,1005.12
2019-04-11T02:33:38.941Z,1005.12
2019-04-11T02:34:39.724Z,1005.17
2019-04-11T02:35:40.014Z,1005.07
2019-04-11T02:36:38.645Z,1005.07
2019-04-11T02:37:39.929Z,1005.05
2019-04-11T02:38:39.101Z,1005.12
2019-04-11T02:39:38.690Z,1005.09
2019-04-11T02:40:38.756Z,1005.09
2019-04-11T02:41:39.826Z,1005.15
2019-04-11T02:42:43.512Z,1005.15
2019-04-11T02:43:40.694Z,1005.20
2019-04-11T02:44:56.503Z,1005.18
2019-04-11T02:45:51.691Z,1005.11
2019-04-11T02:46:48.197Z,1005.18
2019-04-11T02:47:41.983Z,1005.19
2019-04-11T02:48:40.675Z,1005.15
2019-04-11T02:49:39.244Z,1005.16
2019-04-11T02:50:39.300Z,1005.12
2019-04-11T02:51:38.920Z,1005.24
2019-04-11T02:52:39.935Z,1005.18
2019-04-11T02:53:43.278Z,1005.21
2019-04-11T02:54:38.872Z,1005.17
2019-04-11T02:55:38.225Z,1005.19
2019-04-11T02:56:38.226Z,1005.19
2019-04-11T02:57:38.655Z,1005.18
2019-04-11T02:58:39.262Z,1005.23
2019-04-11T02:59:38.912Z,1005.19
2019-04-11T03:00:40.003Z,1005.20
2019-04-11T03:01:39.762Z,1005.16
2019-04-11T03:02:39.419Z,1005.20
2019-04-11T03:03:39.575Z,1005.21
2019-04-11T03:04:43.959Z,1005.27
2019-04-11T03:05:39.391Z,1005.23
2019-04-11T03:06:39.656Z,1005.26
2019-04-11T03:07:38.172Z,1005.23
2019-04-11T03:08:38.784Z,1005.26
2019-04-11T03:09:39.335Z,1005.23
2019-04-11T03:10:38.061Z,1005.24
2019-04-11T03:11:38.771Z,1005.23
2019-04-11T03:12:38.824Z,1005.24
2019-04-11T03:13:38.460Z,1005.21
2019-04-11T03:14:50.161Z,1005.29
2019-04-11T03:16:02.146Z,1005.29
2019-04-11T03:16:51.774Z,1005.31
2019-04-11T03:17:43.217Z,1005.30
2019-04-11T03:18:54.993Z,1005.31
2019-04-11T03:19:53.689Z,1005.31
2019-04-11T03:20:45.687Z,1005.30
2019-04-11T03:21:41.740Z,1005.33
2019-04-11T03:22:40.463Z,1005.29
2019-04-11T03:23:39.590Z,1005.27
2019-04-11T03:24:38.610Z,1005.31
2019-04-11T03:25:38.484Z,1005.34
2019-04-11T03:26:43.600Z,1005.36
2019-04-11T03:27:37.886Z,1005.31
2019-04-11T03:28:38.824Z,1005.34
2019-04-11T03:29:37.992Z,1005.44
2019-04-11T03:30:56.932Z,1005.35
2019-04-11T03:32:17.639Z,1005.42
2019-04-11T03:34:39.829Z,1005.45
2019-04-11T03:35:31.617Z,1005.42
2019-04-11T03:37:21.055Z,1005.47
2019-04-11T03:38:07.546Z,1005.43
2019-04-11T03:39:02.349Z,1005.40
2019-04-11T03:39:59.272Z,1005.46
2019-04-11T03:40:57.784Z,1005.49
2019-04-11T03:41:54.697Z,1005.48
2019-04-11T03:42:57.060Z,1005.52
2019-04-11T03:43:51.092Z,1005.48
2019-04-11T03:44:46.374Z,1005.56
2019-04-11T03:45:58.952Z,1005.57
2019-04-11T03:46:57.416Z,1005.53
2019-04-11T03:47:52.545Z,1005.53
2019-04-11T03:48:57.329Z,1005.59
2019-04-11T03:49:46.705Z,1005.49
2019-04-11T03:50:39.412Z,1005.55
2019-04-11T03:51:40.431Z,1005.50
2019-04-11T03:52:37.592Z,1005.54
2019-04-11T03:53:37.599Z,1005.56
2019-04-11T03:54:38.889Z,1005.57
2019-04-11T03:55:38.955Z,1005.47
2019-04-11T03:56:38.903Z,1005.56
2019-04-11T03:57:37.552Z,1005.54
2019-04-11T03:58:39.247Z,1005.55
2019-04-11T03:59:43.799Z,1005.58
2019-04-11T04:00:42.519Z,1005.56
2019-04-11T04:01:39.835Z,1005.57
2019-04-11T04:02:38.981Z,1005.64
2019-04-11T04:03:39.264Z,1005.65
2019-04-11T04:04:39.153Z,1005.63
2019-04-11T04:05:39.063Z,1005.69
2019-04-11T04:06:38.997Z,1005.72
2019-04-11T04:07:38.108Z,1005.67
2019-04-11T04:08:38.727Z,1005.65
2019-04-11T04:09:39.525Z,1005.73
2019-04-11T04:10:43.626Z,1005.71
2019-04-11T04:11:38.446Z,1005.75
2019-04-11T04:12:37.811Z,1005.73
2019-04-11T04:13:38.721Z,1005.74
2019-04-11T04:14:39.253Z,1005.70
2019-04-11T04:15:51.590Z,1005.80
2019-04-11T04:16:44.431Z,1005.74
2019-04-11T04:17:39.295Z,1005.74
2019-04-11T04:18:38.106Z,1005.79
2019-04-11T04:19:38.083Z,1005.77
2019-04-11T04:20:37.306Z,1005.80
2019-04-11T04:21:42.908Z,1005.80
2019-04-11T04:22:37.702Z,1005.79
2019-04-11T04:23:38.017Z,1005.81
2019-04-11T04:24:40.009Z,1005.89
2019-04-11T04:25:39.068Z,1005.92
2019-04-11T04:26:39.002Z,1005.88
2019-04-11T04:27:38.762Z,1005.85
2019-04-11T04:28:38.136Z,1005.89
2019-04-11T04:29:38.039Z,1005.83
2019-04-11T04:30:38.552Z,1005.84
2019-04-11T04:31:38.562Z,1005.89
2019-04-11T04:32:42.915Z,1005.95
2019-04-11T04:33:39.490Z,1005.89
2019-04-11T04:34:37.305Z,1005.91
2019-04-11T04:35:38.602Z,1005.87
2019-04-11T04:36:37.867Z,1005.90
2019-04-11T04:37:38.639Z,1006.00
2019-04-11T04:38:38.696Z,1005.99
2019-04-11T04:39:38.971Z,1005.94
2019-04-11T04:40:51.027Z,1005.99
2019-04-11T04:41:44.036Z,1005.97
2019-04-11T04:42:44.462Z,1005.96
2019-04-11T04:43:44.134Z,1005.99
2019-04-11T04:44:37.959Z,1006.01
2019-04-11T04:45:58.034Z,1006.04
2019-04-11T04:46:52.662Z,1006.13
2019-04-11T04:47:46.631Z,1006.05
2019-04-11T04:48:38.286Z,1006.05
2019-04-11T04:49:38.647Z,1006.09
2019-04-11T04:50:38.754Z,1006.11
2019-04-11T04:51:37.297Z,1006.07
2019-04-11T04:52:38.196Z,1006.07
2019-04-11T04:53:36.938Z,1006.14
2019-04-11T04:54:41.941Z,1006.12
2019-04-11T04:55:36.899Z,1006.06
2019-04-11T04:56:37.562Z,1006.07
2019-04-11T04:57:37.693Z,1006.12
2019-04-11T04:58:37.842Z,1006.17
2019-04-11T04:59:38.412Z,1006.14
2019-04-11T05:00:37.654Z,1006.13
2019-04-11T05:01:37.372Z,1006.14
2019-04-11T05:02:37.409Z,1006.13
2019-04-11T05:03:37.884Z,1006.23
2019-04-11T05:04:38.410Z,1006.18
2019-04-11T05:05:42.466Z,1006.13
2019-04-11T05:06:36.788Z,1006.20
2019-04-11T05:07:40.181Z,1006.21
2019-04-11T05:08:39.029Z,1006.22
2019-04-11T05:09:38.083Z,1006.25
2019-04-11T05:10:38.175Z,1006.21
2019-04-11T05:11:38.128Z,1006.29
2019-04-11T05:12:36.701Z,1006.28
2019-04-11T05:13:38.348Z,1006.23
2019-04-11T05:14:37.234Z,1006.24
2019-04-11T05:15:36.691Z,1006.23
2019-04-11T05:16:41.824Z,1006.30
2019-04-11T05:17:36.648Z,1006.26
2019-04-11T05:18:36.635Z,1006.28
2019-04-11T05:19:36.629Z,1006.23
2019-04-11T05:20:36.634Z,1006.20
2019-04-11T05:21:37.181Z,1006.28
2019-04-11T05:22:37.264Z,1006.31
2019-04-11T05:23:37.417Z,1006.36
2019-04-11T05:24:36.877Z,1006.35
2019-04-11T05:25:36.960Z,1006.31
2019-04-11T05:26:36.570Z,1006.37
2019-04-11T05:27:41.925Z,1006.33
2019-04-11T05:28:37.389Z,1006.40
2019-04-11T05:29:37.547Z,1006.43
2019-04-11T05:30:36.511Z,1006.37
2019-04-11T05:31:36.584Z,1006.39
2019-04-11T05:32:37.505Z,1006.42
2019-04-11T05:33:36.978Z,1006.37
2019-04-11T05:34:37.156Z,1006.39
2019-04-11T05:35:36.451Z,1006.47
2019-04-11T05:36:36.651Z,1006.46
2019-04-11T05:37:37.677Z,1006.44
2019-04-11T05:38:42.171Z,1006.43
2019-04-11T05:39:36.411Z,1006.59
2019-04-11T05:40:36.391Z,1006.51
2019-04-11T05:41:37.579Z,1006.60
2019-04-11T05:42:37.556Z,1006.53
2019-04-11T05:43:38.616Z,1006.59
2019-04-11T05:44:38.320Z,1006.58
2019-04-11T05:45:36.332Z,1006.59
2019-04-11T05:46:49.077Z,1006.63
2019-04-11T05:47:37.407Z,1006.55
2019-04-11T05:48:36.852Z,1006.52
2019-04-11T05:49:42.459Z,1006.57
2019-04-11T05:50:36.277Z,1006.63
2019-04-11T05:51:40.935Z,1006.62
2019-04-11T05:52:37.268Z,1006.64
2019-04-11T05:53:38.225Z,1006.67
2019-04-11T05:54:38.695Z,1006.60
2019-04-11T05:55:36.388Z,1006.68
2019-04-11T05:56:37.504Z,1006.68
2019-04-11T05:57:38.481Z,1006.62
2019-04-11T05:58:36.652Z,1006.54
2019-04-11T05:59:36.184Z,1006.61
2019-04-11T06:00:41.192Z,1006.56
2019-04-11T06:01:36.371Z,1006.54
2019-04-11T06:02:37.346Z,1006.66
2019-04-11T06:03:39.320Z,1006.69
2019-04-11T06:04:37.289Z,1006.69
2019-04-11T06:05:37.926Z,1006.68
2019-04-11T06:06:39.483Z,1006.65
2019-04-11T06:07:41.020Z,1006.72
2019-04-11T06:08:37.839Z,1006.69
2019-04-11T06:09:39.766Z,1006.73
2019-04-11T06:10:41.303Z,1006.69
2019-04-11T06:11:43.124Z,1006.73
2019-04-11T06:12:36.054Z,1006.76
2019-04-11T06:13:36.442Z,1006.78
2019-04-11T06:14:36.011Z,1006.74
2019-04-11T06:15:36.252Z,1006.72
2019-04-11T06:16:42.294Z,1006.73
2019-04-11T06:17:37.016Z,1006.77
2019-04-11T06:18:37.754Z,1006.72
2019-04-11T06:19:35.959Z,1006.78
2019-04-11T06:20:35.952Z,1006.74
2019-04-11T06:21:36.022Z,1006.78
2019-04-11T06:22:42.138Z,1006.76
2019-04-11T06:23:37.134Z,1006.72
2019-04-11T06:24:36.418Z,1006.83
2019-04-11T06:25:40.242Z,1006.79
2019-04-11T06:26:36.878Z,1006.81
2019-04-11T06:27:36.449Z,1006.84
2019-04-11T06:28:36.138Z,1006.83
2019-04-11T06:29:36.954Z,1006.89
2019-04-11T06:30:36.692Z,1006.92
2019-04-11T06:31:36.050Z,1006.88
2019-04-11T06:32:36.051Z,1006.89
2019-04-11T06:33:40.827Z,1006.82
2019-04-11T06:34:35.792Z,1006.86
2019-04-11T06:35:35.975Z,1006.89
2019-04-11T06:36:36.960Z,1006.89
2019-04-11T06:37:36.122Z,1006.87
2019-04-11T06:38:35.751Z,1006.87
2019-04-11T06:39:35.762Z,1006.89
2019-04-11T06:40:36.680Z,1006.94
2019-04-11T06:41:36.815Z,1006.98
2019-04-11T06:42:35.739Z,1007.00
2019-04-11T06:43:36.255Z,1007.02
2019-04-11T06:44:41.697Z,1007.04
2019-04-11T06:45:35.809Z,1007.01
2019-04-11T06:46:47.599Z,1007.03
2019-04-11T06:47:36.799Z,1007.11
2019-04-11T06:48:35.884Z,1007.07
2019-04-11T06:49:36.321Z,1007.04
2019-04-11T06:50:35.617Z,1007.13
2019-04-11T06:51:35.777Z,1007.11
2019-04-11T06:52:35.604Z,1007.15
2019-04-11T06:53:36.455Z,1007.17
2019-04-11T06:54:35.570Z,1007.12
2019-04-11T06:55:40.582Z,1007.09
2019-04-11T06:56:35.554Z,1007.10
2019-04-11T06:57:36.250Z,1007.15
2019-04-11T06:58:35.539Z,1007.12
2019-04-11T06:59:36.520Z,1007.16
2019-04-11T07:00:35.503Z,1007.16
2019-04-11T07:01:36.242Z,1007.19
2019-04-11T07:02:35.480Z,1007.12
2019-04-11T07:03:36.291Z,1007.13
2019-04-11T07:04:35.761Z,1007.13
2019-04-11T07:05:35.454Z,1007.10
2019-04-11T07:06:40.461Z,1007.18
2019-04-11T07:07:36.199Z,1007.22
2019-04-11T07:08:35.425Z,1007.15
2019-04-11T07:09:35.423Z,1007.10
2019-04-11T07:10:36.248Z,1007.08
2019-04-11T07:11:36.244Z,1007.12
2019-04-11T07:12:35.380Z,1007.11
2019-04-11T07:13:35.409Z,1007.07
2019-04-11T07:14:35.515Z,1007.04
2019-04-11T07:15:35.596Z,1007.06
2019-04-11T07:16:36.264Z,1007.04
2019-04-11T07:17:40.458Z,1007.05
2019-04-11T07:18:35.675Z,1007.07
2019-04-11T07:19:35.292Z,1007.12
2019-04-11T07:20:35.709Z,1007.13
2019-04-11T07:21:35.499Z,1007.16
2019-04-11T07:22:35.300Z,1007.12
2019-04-11T07:23:36.427Z,1007.13
2019-04-11T07:24:35.236Z,1007.21
2019-04-11T07:25:35.313Z,1007.36
2019-04-11T07:26:35.244Z,1007.27
2019-04-11T07:27:35.202Z,1007.27
2019-04-11T07:28:41.480Z,1007.26
2019-04-11T07:29:35.196Z,1007.21
2019-04-11T07:30:35.407Z,1007.29
2019-04-11T07:31:35.558Z,1007.29
2019-04-11T07:32:36.368Z,1007.36
2019-04-11T07:33:35.420Z,1007.37
2019-04-11T07:34:36.258Z,1007.27
2019-04-11T07:35:35.673Z,1007.14
2019-04-11T07:36:36.091Z,1007.16
2019-04-11T07:37:36.780Z,1007.24
2019-04-11T07:38:36.435Z,1007.21
2019-04-11T07:39:42.633Z,1007.18
2019-04-11T07:40:35.332Z,1007.15
2019-04-11T07:41:35.044Z,1007.18
2019-04-11T07:42:36.087Z,1007.25
2019-04-11T07:43:35.525Z,1007.23
2019-04-11T07:44:35.103Z,1007.27
2019-04-11T07:45:37.590Z,1007.25
2019-04-11T07:46:35.056Z,1007.18
2019-04-11T07:47:35.207Z,1007.20
2019-04-11T07:48:35.947Z,1007.23
2019-04-11T07:49:35.155Z,1007.25
2019-04-11T07:50:40.028Z,1007.29
2019-04-11T07:51:34.937Z,1007.28
2019-04-11T07:52:35.885Z,1007.34
2019-04-11T07:53:35.203Z,1007.26
2019-04-11T07:54:34.911Z,1007.36
2019-04-11T07:55:34.897Z,1007.35
2019-04-11T07:56:35.241Z,1007.35
2019-04-11T07:57:34.874Z,1007.30
2019-04-11T07:58:35.309Z,1007.26
2019-04-11T07:59:34.857Z,1007.30
2019-04-11T08:00:41.945Z,1007.46
2019-04-11T08:01:40.843Z,1007.30
2019-04-11T08:02:35.529Z,1007.31
2019-04-11T08:03:35.633Z,1007.41
2019-04-11T08:04:34.803Z,1007.33
2019-04-11T08:05:34.793Z,1007.40
2019-04-11T08:06:34.773Z,1007.37
2019-04-11T08:07:34.767Z,1007.51
2019-04-11T08:08:34.744Z,1007.50
2019-04-11T08:09:35.752Z,1007.48
2019-04-11T08:10:35.117Z,1007.59
2019-04-11T08:11:35.802Z,1007.51
2019-04-11T08:12:39.729Z,1007.61
2019-04-11T08:13:34.724Z,1007.66
2019-04-11T08:14:34.865Z,1007.61
2019-04-11T08:15:34.664Z,1007.61
2019-04-11T08:16:35.063Z,1007.57
2019-04-11T08:17:38.999Z,1007.54
2019-04-11T08:18:35.632Z,1007.52
2019-04-11T08:19:35.215Z,1007.39
2019-04-11T08:20:34.616Z,1007.46
2019-04-11T08:21:36.094Z,1007.51
2019-04-11T08:22:34.981Z,1007.47
2019-04-11T08:23:40.145Z,1007.44
2019-04-11T08:24:34.570Z,1007.42
2019-04-11T08:25:35.507Z,1007.49
2019-04-11T08:26:34.546Z,1007.53
2019-04-11T08:27:35.697Z,1007.62
2019-04-11T08:28:35.556Z,1007.52
2019-04-11T08:29:34.513Z,1007.59
2019-04-11T08:30:35.012Z,1007.56
2019-04-11T08:31:34.489Z,1007.54
2019-04-11T08:32:34.477Z,1007.47
2019-04-11T08:33:35.121Z,1007.34
2019-04-11T08:34:39.736Z,1007.40
2019-04-11T08:35:34.926Z,1007.49
2019-04-11T08:36:34.441Z,1007.54
2019-04-11T08:37:34.421Z,1007.53
2019-04-11T08:38:34.412Z,1007.52
2019-04-11T08:39:35.300Z,1007.48
2019-04-11T08:40:35.523Z,1007.49
2019-04-11T08:41:34.393Z,1007.49
2019-04-11T08:42:34.368Z,1007.42
2019-04-11T08:43:35.276Z,1007.53
2019-04-11T08:44:34.351Z,1007.57
2019-04-11T08:45:40.337Z,1007.57
2019-04-11T08:46:35.139Z,1007.53
2019-04-11T08:47:46.373Z,1007.46
2019-04-11T08:48:35.298Z,1007.32
2019-04-11T08:49:35.056Z,1007.56
2019-04-11T08:50:34.485Z,1007.35
2019-04-11T08:51:34.285Z,1007.42
2019-04-11T08:52:34.261Z,1007.35
2019-04-11T08:53:35.070Z,1007.39
2019-04-11T08:54:34.345Z,1007.44
2019-04-11T08:55:47.652Z,1007.38
2019-04-11T08:56:40.232Z,1007.40
2019-04-11T08:57:34.200Z,1007.43
2019-04-11T08:58:34.200Z,1007.35
2019-04-11T08:59:34.175Z,1007.41
2019-04-11T09:00:34.627Z,1007.43
2019-04-11T09:01:34.164Z,1007.42
2019-04-11T09:02:35.257Z,1007.47
2019-04-11T09:03:34.141Z,1007.45
2019-04-11T09:04:34.411Z,1007.41
2019-04-11T09:05:35.331Z,1007.43
2019-04-11T09:06:34.097Z,1007.42
2019-04-11T09:07:39.118Z,1007.41
2019-04-11T09:08:34.340Z,1007.48
2019-04-11T09:09:35.123Z,1007.50
2019-04-11T09:10:34.063Z,1007.43
2019-04-11T09:11:36.669Z,1007.38
2019-04-11T09:12:34.244Z,1007.35
2019-04-11T09:13:34.025Z,1007.45
2019-04-11T09:14:34.013Z,1007.46
2019-04-11T09:15:35.155Z,1007.38
2019-04-11T09:16:34.055Z,1007.28
2019-04-11T09:17:34.498Z,1007.41
2019-04-11T09:18:38.994Z,1007.38
2019-04-11T09:19:34.819Z,1007.49
2019-04-11T09:20:34.061Z,1007.39
2019-04-11T09:21:34.155Z,1007.45
2019-04-11T09:22:33.933Z,1007.41
2019-04-11T09:23:33.907Z,1007.39
2019-04-11T09:24:34.638Z,1007.46
2019-04-11T09:25:34.954Z,1007.41
2019-04-11T09:26:34.154Z,1007.38
2019-04-11T09:27:33.867Z,1007.48
2019-04-11T09:28:33.854Z,1007.47
2019-04-11T09:29:39.875Z,1007.41
2019-04-11T09:30:33.828Z,1007.49
2019-04-11T09:31:33.867Z,1007.62
2019-04-11T09:32:33.983Z,1007.55
2019-04-11T09:33:33.807Z,1007.53
2019-04-11T09:34:33.838Z,1007.39
2019-04-11T09:35:33.773Z,1007.47
2019-04-11T09:36:33.766Z,1007.50
2019-04-11T09:37:33.910Z,1007.46
2019-04-11T09:38:34.695Z,1007.56
2019-04-11T09:39:33.732Z,1007.43
2019-04-11T09:40:39.602Z,1007.42
2019-04-11T09:41:33.714Z,1007.65
2019-04-11T09:42:34.584Z,1007.51
2019-04-11T09:43:33.951Z,1007.53
2019-04-11T09:44:33.676Z,1007.48
2019-04-11T09:45:33.666Z,1007.59
2019-04-11T09:46:34.499Z,1007.56
2019-04-11T09:47:33.646Z,1007.50
2019-04-11T09:48:33.787Z,1007.43
2019-04-11T09:49:33.623Z,1007.42
2019-04-11T09:50:34.212Z,1007.43
2019-04-11T09:51:38.648Z,1007.44
2019-04-11T09:52:33.595Z,1007.44
2019-04-11T09:53:34.499Z,1007.45
2019-04-11T09:54:34.762Z,1007.45
2019-04-11T09:55:33.550Z,1007.41
2019-04-11T09:56:33.555Z,1007.44
2019-04-11T09:57:34.673Z,1007.53
2019-04-11T09:58:33.751Z,1007.47
2019-04-11T09:59:33.533Z,1007.33
2019-04-11T10:00:34.647Z,1007.46
2019-04-11T10:01:33.487Z,1007.41
2019-04-11T10:02:39.654Z,1007.43
2019-04-11T10:03:34.519Z,1007.46
2019-04-11T10:04:33.917Z,1007.43
2019-04-11T10:05:34.157Z,1007.36
2019-04-11T10:06:34.440Z,1007.39
2019-04-11T10:07:33.570Z,1007.41
2019-04-11T10:08:33.406Z,1007.57
2019-04-11T10:09:33.434Z,1007.40
2019-04-11T10:10:33.387Z,1007.46
2019-04-11T10:11:34.507Z,1007.46
2019-04-11T10:12:33.366Z,1007.47
2019-04-11T10:13:38.377Z,1007.57
2019-04-11T10:14:33.515Z,1007.50
2019-04-11T10:15:33.770Z,1007.56
2019-04-11T10:16:33.895Z,1007.54
2019-04-11T10:17:33.922Z,1007.48
2019-04-11T10:18:37.297Z,1007.50
2019-04-11T10:19:34.297Z,1007.52
2019-04-11T10:20:33.273Z,1007.48
2019-04-11T10:21:33.271Z,1007.45
2019-04-11T10:22:34.075Z,1007.49
2019-04-11T10:23:34.519Z,1007.49
2019-04-11T10:24:38.803Z,1007.43
2019-04-11T10:25:33.227Z,1007.50
2019-04-11T10:26:34.131Z,1007.33
2019-04-11T10:27:33.206Z,1007.32
2019-04-11T10:28:33.473Z,1007.35
2019-04-11T10:29:34.511Z,1007.43
2019-04-11T10:30:33.543Z,1007.44
2019-04-11T10:31:33.149Z,1007.49
2019-04-11T10:32:33.173Z,1007.53
2019-04-11T10:33:33.190Z,1007.39
2019-04-11T10:34:33.500Z,1007.67
2019-04-11T10:35:38.676Z,1007.37
2019-04-11T10:36:33.106Z,1007.44
2019-04-11T10:37:33.866Z,1007.43
2019-04-11T10:38:33.099Z,1007.47
2019-04-11T10:39:33.356Z,1007.43
2019-04-11T10:40:34.340Z,1007.42
2019-04-11T10:41:33.044Z,1007.48
2019-04-11T10:42:33.048Z,1007.44
2019-04-11T10:43:34.122Z,1007.53
2019-04-11T10:44:33.987Z,1007.64
2019-04-11T10:45:32.997Z,1007.64
2019-04-11T10:46:38.011Z,1007.57
2019-04-11T10:47:33.315Z,1007.63
2019-04-11T10:48:39.275Z,1007.69
2019-04-11T10:49:34.490Z,1007.62
2019-04-11T10:50:34.037Z,1007.59
2019-04-11T10:51:33.813Z,1007.59
2019-04-11T10:52:34.151Z,1007.53
2019-04-11T10:53:33.301Z,1007.60
2019-04-11T10:54:32.915Z,1007.60
2019-04-11T10:55:33.623Z,1007.58
2019-04-11T10:56:32.874Z,1007.68
2019-04-11T10:57:38.242Z,1007.58
2019-04-11T10:58:33.113Z,1007.51
2019-04-11T10:59:32.849Z,1007.60
2019-04-11T11:00:33.475Z,1007.59
2019-04-11T11:01:33.804Z,1007.51
2019-04-11T11:02:33.624Z,1007.49
2019-04-11T11:03:33.995Z,1007.36
2019-04-11T11:04:32.842Z,1007.50
2019-04-11T11:05:32.775Z,1007.42
2019-04-11T11:06:32.772Z,1007.51
2019-04-11T11:07:32.985Z,1007.46
2019-04-11T11:08:37.766Z,1007.36
2019-04-11T11:09:32.734Z,1007.47
2019-04-11T11:10:33.290Z,1007.45
2019-04-11T11:11:32.709Z,1007.55
2019-04-11T11:12:33.025Z,1007.37
2019-04-11T11:13:32.688Z,1007.46
2019-04-11T11:14:32.674Z,1007.40
2019-04-11T11:15:33.789Z,1007.42
2019-04-11T11:16:34.121Z,1007.40
2019-04-11T11:17:54.529Z,1007.59
2019-04-11T11:18:53.823Z,1007.48
2019-04-11T11:19:49.780Z,1007.56
2019-04-11T11:20:38.636Z,1007.56
2019-04-11T11:21:35.455Z,1007.49
2019-04-11T11:22:34.462Z,1007.44
2019-04-11T11:23:33.089Z,1007.40
2019-04-11T11:24:33.671Z,1007.31
2019-04-11T11:25:33.029Z,1007.35
2019-04-11T11:26:33.746Z,1007.38
2019-04-11T11:27:32.542Z,1007.43
2019-04-11T11:28:32.542Z,1007.46
2019-04-11T11:29:32.510Z,1007.38
2019-04-11T11:30:37.734Z,1007.48
2019-04-11T11:31:32.483Z,1007.58
2019-04-11T11:32:33.610Z,1007.60
2019-04-11T11:33:32.471Z,1007.55
2019-04-11T11:34:32.695Z,1007.61
2019-04-11T11:35:35.955Z,1007.72
2019-04-11T11:36:37.472Z,1007.78
2019-04-11T11:37:33.312Z,1007.67
2019-04-11T11:38:33.607Z,1007.69
2019-04-11T11:39:33.363Z,1007.62
2019-04-11T11:40:32.388Z,1007.70
2019-04-11T11:41:38.525Z,1007.73
2019-04-11T11:42:32.512Z,1007.84
2019-04-11T11:43:32.965Z,1007.67
2019-04-11T11:44:32.946Z,1007.74
2019-04-11T11:45:33.242Z,1007.62
2019-04-11T11:46:32.320Z,1007.63
2019-04-11T11:47:35.637Z,1007.58
2019-04-11T11:48:33.443Z,1007.51
2019-04-11T11:49:44.624Z,1007.52
2019-04-11T11:50:34.510Z,1007.52
2019-04-11T11:51:33.292Z,1007.48
2019-04-11T11:52:37.563Z,1007.43
2019-04-11T11:53:33.044Z,1007.47
2019-04-11T11:54:32.468Z,1007.48
2019-04-11T11:55:33.457Z,1007.41
2019-04-11T11:56:32.233Z,1007.56
2019-04-11T11:57:33.009Z,1007.61
2019-04-11T11:58:33.306Z,1007.64
2019-04-11T11:59:32.257Z,1007.52
2019-04-11T12:00:33.321Z,1007.52
2019-04-11T12:01:32.156Z,1007.47
2019-04-11T12:02:32.737Z,1007.46
2019-04-11T12:03:38.907Z,1007.55
2019-04-11T12:04:35.319Z,1007.52
2019-04-11T12:05:32.691Z,1007.54
2019-04-11T12:06:33.274Z,1007.57
2019-04-11T12:07:37.002Z,1007.67